createdAt,value
2018-01-30T00:00:34.643Z,0.00
2018-01-30T00:01:34.737Z,0.00
2018-01-30T00:02:34.817Z,0.00
2018-01-30T00:03:34.909Z,0.00
2018-01-30T00:04:34.988Z,0.00
2018-01-30T00:05:35.074Z,0.00
2018-01-30T00:06:35.153Z,0.00
2018-01-30T00:07:35.240Z,0.00
2018-01-30T00:08:35.326Z,0.00
2018-01-30T00:09:35.408Z,0.00
2018-01-30T00:10:35.490Z,0.00
2018-01-30T00:11:35.571Z,0.00
2018-01-30T00:12:35.663Z,0.00
2018-01-30T00:13:35.745Z,0.00
2018-01-30T00:14:35.828Z,0.00
2018-01-30T00:15:35.918Z,0.00
2018-01-30T00:16:36.003Z,0.00
2018-01-30T00:17:36.083Z,0.00
2018-01-30T00:18:36.167Z,0.00
2018-01-30T00:19:36.252Z,0.00
2018-01-30T00:20:36.341Z,0.00
2018-01-30T00:21:36.422Z,0.00
2018-01-30T00:22:36.509Z,0.00
2018-01-30T00:23:36.592Z,0.00
2018-01-30T00:24:36.677Z,0.00
2018-01-30T00:25:36.762Z,0.00
2018-01-30T00:26:36.844Z,0.00
2018-01-30T00:27:36.932Z,0.00
2018-01-30T00:28:37.016Z,0.00
2018-01-30T00:29:37.100Z,0.00
2018-01-30T00:30:37.186Z,0.00
2018-01-30T00:31:37.266Z,0.00
2018-01-30T00:32:37.346Z,0.00
2018-01-30T00:33:37.436Z,0.00
2018-01-30T00:34:37.527Z,0.00
2018-01-30T00:35:37.601Z,0.00
2018-01-30T00:36:37.686Z,0.00
2018-01-30T00:37:37.770Z,0.00
2018-01-30T00:38:37.856Z,0.00
2018-01-30T00:39:37.944Z,0.00
2018-01-30T00:40:38.027Z,0.00
2018-01-30T00:41:38.114Z,0.00
2018-01-30T00:42:38.201Z,0.00
2018-01-30T00:43:38.281Z,0.00
2018-01-30T00:44:38.367Z,0.00
2018-01-30T00:45:38.451Z,0.00
2018-01-30T00:46:38.535Z,0.00
2018-01-30T00:47:38.626Z,0.00
2018-01-30T00:48:38.705Z,0.00
2018-01-30T00:49:38.792Z,0.00
2018-01-30T00:50:38.870Z,0.00
2018-01-30T00:51:38.960Z,0.00
2018-01-30T00:52:39.047Z,0.00
2018-01-30T00:53:39.126Z,0.00
2018-01-30T00:54:39.213Z,0.00
2018-01-30T00:55:39.293Z,0.00
2018-01-30T00:56:39.380Z,0.00
2018-01-30T00:57:39.463Z,0.00
2018-01-30T00:58:39.549Z,0.00
2018-01-30T00:59:39.630Z,0.00
2018-01-30T01:00:39.718Z,0.00
2018-01-30T01:01:39.804Z,0.00
2018-01-30T01:02:39.887Z,0.00
2018-01-30T01:03:39.971Z,0.00
2018-01-30T01:04:40.050Z,0.00
2018-01-30T01:05:40.135Z,0.00
2018-01-30T01:06:40.227Z,0.00
2018-01-30T01:07:40.313Z,0.00
2018-01-30T01:08:40.398Z,0.00
2018-01-30T01:09:40.473Z,0.00
2018-01-30T01:10:40.560Z,0.00
2018-01-30T01:11:40.643Z,0.00
2018-01-30T01:12:40.733Z,0.00
2018-01-30T01:13:40.813Z,0.00
2018-01-30T01:14:40.901Z,0.00
2018-01-30T01:15:40.988Z,0.00
2018-01-30T01:16:41.073Z,0.00
2018-01-30T01:17:41.155Z,0.00
2018-01-30T01:18:41.241Z,0.00
2018-01-30T01:19:41.323Z,0.00
2018-01-30T01:20:41.405Z,0.00
2018-01-30T01:21:41.495Z,0.00
2018-01-30T01:22:41.576Z,0.00
2018-01-30T01:23:41.655Z,0.00
2018-01-30T01:24:41.745Z,0.00
2018-01-30T01:25:41.824Z,0.00
2018-01-30T01:26:41.913Z,0.00
2018-01-30T01:27:42.006Z,0.00
2018-01-30T01:28:42.086Z,0.00
2018-01-30T01:29:42.169Z,0.00
2018-01-30T01:30:42.255Z,0.00
2018-01-30T01:31:42.335Z,0.00
2018-01-30T01:32:42.421Z,0.00
2018-01-30T01:33:42.502Z,0.00
2018-01-30T01:34:42.594Z,0.00
2018-01-30T01:35:42.674Z,0.00
2018-01-30T01:36:42.761Z,0.00
2018-01-30T01:37:42.849Z,0.00
2018-01-30T01:38:42.923Z,0.00
2018-01-30T01:39:43.010Z,0.00
2018-01-30T01:40:43.097Z,0.00
2018-01-30T01:41:43.184Z,0.00
2018-01-30T01:42:43.270Z,0.00
2018-01-30T01:43:43.355Z,0.00
2018-01-30T01:44:43.437Z,0.00
2018-01-30T01:45:43.518Z,0.00
2018-01-30T01:46:43.601Z,0.00
2018-01-30T01:47:43.691Z,0.00
2018-01-30T01:48:43.773Z,0.00
2018-01-30T01:49:43.862Z,0.00
2018-01-30T01:50:43.940Z,0.00
2018-01-30T01:51:44.022Z,0.00
2018-01-30T01:52:44.112Z,0.00
2018-01-30T01:53:44.194Z,0.00
2018-01-30T01:54:44.275Z,0.00
2018-01-30T01:55:44.361Z,0.00
2018-01-30T01:56:44.447Z,0.00
2018-01-30T01:57:44.536Z,0.00
2018-01-30T01:58:44.615Z,0.00
2018-01-30T01:59:44.705Z,0.00
2018-01-30T02:00:44.782Z,0.00
2018-01-30T02:01:44.867Z,0.00
2018-01-30T02:02:44.950Z,0.00
2018-01-30T02:03:45.032Z,0.00
2018-01-30T02:04:45.120Z,0.00
2018-01-30T02:05:45.203Z,0.00
2018-01-30T02:06:45.295Z,0.00
2018-01-30T02:07:45.376Z,0.00
2018-01-30T02:08:45.459Z,0.00
2018-01-30T02:09:45.577Z,0.00
2018-01-30T02:10:45.628Z,0.00
2018-01-30T02:11:45.710Z,0.00
2018-01-30T02:12:45.798Z,0.00
2018-01-30T02:13:45.877Z,0.00
2018-01-30T02:14:45.968Z,0.00
2018-01-30T02:15:46.046Z,0.00
2018-01-30T02:16:46.129Z,0.00
2018-01-30T02:17:46.219Z,0.00
2018-01-30T02:18:46.304Z,0.00
2018-01-30T02:19:46.388Z,0.00
2018-01-30T02:20:46.470Z,0.00
2018-01-30T02:21:46.559Z,0.00
2018-01-30T02:22:46.645Z,0.00
2018-01-30T02:23:46.725Z,0.00
2018-01-30T02:24:46.811Z,0.00
2018-01-30T02:25:46.894Z,0.00
2018-01-30T02:26:46.981Z,0.00
2018-01-30T02:27:47.063Z,0.00
2018-01-30T02:28:47.144Z,0.00
2018-01-30T02:29:47.238Z,0.00
2018-01-30T02:30:47.319Z,0.00
2018-01-30T02:31:47.398Z,0.00
2018-01-30T02:32:47.484Z,0.00
2018-01-30T02:33:47.570Z,0.00
2018-01-30T02:34:47.650Z,0.00
2018-01-30T02:35:47.738Z,0.00
2018-01-30T02:36:47.817Z,0.00
2018-01-30T02:37:47.916Z,0.00
2018-01-30T02:38:47.992Z,0.00
2018-01-30T02:39:48.076Z,0.00
2018-01-30T02:40:48.161Z,0.00
2018-01-30T02:41:48.245Z,0.00
2018-01-30T02:42:48.323Z,0.00
2018-01-30T02:43:48.414Z,0.00
2018-01-30T02:44:48.498Z,0.00
2018-01-30T02:45:48.580Z,0.00
2018-01-30T02:46:48.667Z,0.00
2018-01-30T02:47:48.753Z,0.00
2018-01-30T02:48:48.829Z,0.00
2018-01-30T02:49:48.921Z,0.00
2018-01-30T02:50:49.004Z,0.00
2018-01-30T02:51:49.089Z,0.00
2018-01-30T02:52:49.170Z,0.00
2018-01-30T02:53:49.255Z,0.00
2018-01-30T02:54:49.348Z,0.00
2018-01-30T02:55:49.442Z,0.00
2018-01-30T02:56:49.519Z,0.00
2018-01-30T02:57:49.599Z,0.00
2018-01-30T02:58:49.679Z,0.00
2018-01-30T02:59:49.756Z,0.00
2018-01-30T03:00:49.846Z,0.00
2018-01-30T03:01:49.926Z,0.00
2018-01-30T03:02:50.012Z,0.00
2018-01-30T03:03:50.096Z,0.00
2018-01-30T03:04:50.187Z,0.00
2018-01-30T03:05:50.266Z,0.00
2018-01-30T03:06:50.358Z,0.00
2018-01-30T03:07:50.433Z,0.00
2018-01-30T03:08:50.521Z,0.00
2018-01-30T03:09:50.602Z,0.00
2018-01-30T03:10:50.684Z,0.00
2018-01-30T03:11:50.772Z,0.00
2018-01-30T03:12:50.860Z,0.00
2018-01-30T03:13:50.944Z,0.00
2018-01-30T03:14:51.029Z,0.00
2018-01-30T03:15:51.106Z,0.00
2018-01-30T03:16:51.200Z,0.00
2018-01-30T03:17:51.274Z,0.00
2018-01-30T03:18:51.363Z,0.00
2018-01-30T03:19:51.446Z,0.00
2018-01-30T03:20:51.532Z,0.00
2018-01-30T03:21:51.614Z,0.00
2018-01-30T03:22:51.702Z,0.00
2018-01-30T03:23:51.778Z,0.00
2018-01-30T03:24:51.873Z,0.00
2018-01-30T03:25:51.949Z,0.00
2018-01-30T03:26:52.039Z,0.00
2018-01-30T03:27:52.124Z,0.00
2018-01-30T03:28:52.211Z,0.00
2018-01-30T03:29:52.284Z,0.00
2018-01-30T03:30:52.373Z,0.00
2018-01-30T03:31:52.457Z,0.00
2018-01-30T03:32:52.543Z,0.00
2018-01-30T03:33:52.624Z,0.00
2018-01-30T03:34:52.707Z,0.00
2018-01-30T03:35:52.793Z,0.00
2018-01-30T03:36:52.882Z,0.00
2018-01-30T03:37:52.962Z,0.00
2018-01-30T03:38:53.051Z,0.00
2018-01-30T03:39:53.133Z,0.00
2018-01-30T03:40:53.213Z,0.00
2018-01-30T03:41:53.300Z,0.00
2018-01-30T03:42:53.381Z,0.00
2018-01-30T03:43:53.467Z,0.00
2018-01-30T03:44:53.564Z,0.00
2018-01-30T03:45:53.640Z,0.00
2018-01-30T03:46:53.727Z,0.00
2018-01-30T03:47:53.809Z,0.00
2018-01-30T03:48:53.891Z,0.00
2018-01-30T03:49:53.975Z,0.00
2018-01-30T03:50:54.063Z,0.00
2018-01-30T03:51:54.145Z,0.00
2018-01-30T03:52:54.232Z,0.00
2018-01-30T03:53:54.312Z,0.00
2018-01-30T03:54:54.395Z,0.00
2018-01-30T03:55:54.482Z,0.00
2018-01-30T03:56:54.570Z,0.00
2018-01-30T03:57:54.648Z,0.00
2018-01-30T03:58:54.732Z,0.00
2018-01-30T03:59:54.813Z,0.00
2018-01-30T04:00:54.905Z,0.00
2018-01-30T04:01:54.991Z,0.00
2018-01-30T04:02:55.069Z,0.00
2018-01-30T04:03:55.157Z,0.00
2018-01-30T04:04:55.232Z,0.00
2018-01-30T04:05:55.324Z,0.00
2018-01-30T04:06:55.405Z,0.00
2018-01-30T04:07:55.486Z,0.00
2018-01-30T04:08:55.575Z,0.00
2018-01-30T04:09:55.663Z,0.00
2018-01-30T04:10:55.744Z,0.00
2018-01-30T04:11:55.827Z,0.00
2018-01-30T04:12:55.917Z,0.00
2018-01-30T04:13:55.996Z,0.00
2018-01-30T04:14:56.083Z,0.00
2018-01-30T04:15:56.169Z,0.00
2018-01-30T04:16:56.251Z,0.00
2018-01-30T04:17:56.333Z,0.00
2018-01-30T04:18:56.418Z,0.00
2018-01-30T04:19:56.506Z,0.00
2018-01-30T04:20:56.587Z,0.00
2018-01-30T04:21:56.668Z,0.00
2018-01-30T04:22:56.754Z,0.00
2018-01-30T04:23:56.834Z,0.00
2018-01-30T04:24:56.925Z,0.00
2018-01-30T04:25:57.013Z,0.00
2018-01-30T04:26:57.093Z,0.00
2018-01-30T04:27:57.169Z,0.00
2018-01-30T04:28:57.300Z,0.00
2018-01-30T04:29:57.345Z,0.00
2018-01-30T04:30:57.431Z,0.00
2018-01-30T04:31:57.516Z,0.00
2018-01-30T04:32:57.598Z,0.00
2018-01-30T04:33:57.678Z,0.00
2018-01-30T04:34:57.765Z,0.00
2018-01-30T04:35:57.852Z,0.00
2018-01-30T04:36:57.938Z,0.00
2018-01-30T04:37:58.017Z,0.00
2018-01-30T04:38:58.104Z,0.00
2018-01-30T04:39:58.187Z,0.00
2018-01-30T04:40:58.276Z,0.00
2018-01-30T04:41:58.358Z,0.00
2018-01-30T04:42:58.441Z,0.00
2018-01-30T04:43:58.527Z,0.00
2018-01-30T04:44:58.609Z,0.00
2018-01-30T04:45:58.696Z,0.00
2018-01-30T04:46:58.777Z,0.00
2018-01-30T04:47:58.855Z,0.00
2018-01-30T04:48:58.997Z,0.00
2018-01-30T04:49:59.034Z,0.00
2018-01-30T04:50:59.116Z,0.00
2018-01-30T04:51:59.202Z,0.00
2018-01-30T04:52:59.279Z,0.00
2018-01-30T04:53:59.364Z,0.00
2018-01-30T04:54:59.452Z,0.00
2018-01-30T04:55:59.535Z,0.00
2018-01-30T04:56:59.622Z,0.00
2018-01-30T04:57:59.704Z,0.00
2018-01-30T04:58:59.783Z,0.00
2018-01-30T04:59:59.863Z,0.00
2018-01-30T05:00:59.951Z,0.00
2018-01-30T05:02:00.040Z,0.00
2018-01-30T05:03:00.124Z,0.00
2018-01-30T05:04:00.204Z,0.00
2018-01-30T05:05:00.285Z,0.00
2018-01-30T05:06:00.373Z,0.00
2018-01-30T05:07:00.454Z,0.00
2018-01-30T05:08:00.539Z,0.00
2018-01-30T05:09:00.635Z,0.00
2018-01-30T05:10:00.708Z,0.00
2018-01-30T05:11:00.794Z,0.00
2018-01-30T05:12:00.874Z,0.00
2018-01-30T05:13:00.965Z,0.00
2018-01-30T05:14:01.048Z,0.00
2018-01-30T05:15:01.136Z,0.00
2018-01-30T05:16:01.220Z,0.00
2018-01-30T05:17:01.302Z,0.00
2018-01-30T05:18:01.388Z,0.00
2018-01-30T05:19:01.472Z,0.00
2018-01-30T05:20:01.550Z,0.00
2018-01-30T05:21:01.641Z,0.00
2018-01-30T05:22:01.724Z,0.00
2018-01-30T05:23:01.809Z,0.00
2018-01-30T05:24:01.894Z,0.00
2018-01-30T05:25:01.977Z,0.00
2018-01-30T05:26:02.055Z,0.00
2018-01-30T05:27:02.140Z,0.00
2018-01-30T05:28:02.224Z,0.00
2018-01-30T05:29:02.310Z,0.00
2018-01-30T05:30:02.398Z,0.00
2018-01-30T05:31:02.476Z,0.00
2018-01-30T05:32:02.565Z,0.00
2018-01-30T05:33:02.647Z,0.00
2018-01-30T05:34:02.733Z,0.00
2018-01-30T05:35:02.817Z,0.00
2018-01-30T05:36:02.897Z,0.00
2018-01-30T05:37:02.983Z,0.00
2018-01-30T05:38:03.064Z,0.00
2018-01-30T05:39:03.147Z,0.00
2018-01-30T05:40:03.232Z,0.00
2018-01-30T05:41:03.315Z,0.00
2018-01-30T05:42:03.405Z,0.00
2018-01-30T05:43:03.486Z,0.00
2018-01-30T05:44:03.571Z,0.00
2018-01-30T05:45:03.653Z,0.00
2018-01-30T05:46:03.739Z,0.00
2018-01-30T05:47:03.822Z,0.00
2018-01-30T05:48:03.903Z,0.00
2018-01-30T05:49:03.997Z,0.00
2018-01-30T05:50:04.073Z,0.00
2018-01-30T05:51:04.160Z,0.00
2018-01-30T05:52:04.243Z,0.00
2018-01-30T05:53:04.329Z,0.00
2018-01-30T05:54:04.409Z,0.00
2018-01-30T05:55:04.498Z,0.00
2018-01-30T05:56:04.575Z,0.00
2018-01-30T05:57:04.663Z,0.00
2018-01-30T05:58:04.744Z,0.00
2018-01-30T05:59:04.831Z,0.00
2018-01-30T06:00:04.930Z,0.00
2018-01-30T06:01:05.037Z,0.00
2018-01-30T06:02:05.080Z,0.00
2018-01-30T06:03:05.169Z,0.00
2018-01-30T06:04:05.253Z,0.00
2018-01-30T06:05:05.333Z,0.00
2018-01-30T06:06:05.423Z,0.00
2018-01-30T06:07:05.505Z,0.00
2018-01-30T06:08:05.589Z,0.00
2018-01-30T06:09:05.668Z,0.00
2018-01-30T06:10:05.752Z,0.00
2018-01-30T06:11:05.843Z,0.00
2018-01-30T06:12:05.932Z,0.00
2018-01-30T06:13:06.014Z,0.00
2018-01-30T06:14:06.096Z,0.00
2018-01-30T06:15:06.184Z,0.00
2018-01-30T06:16:06.268Z,0.00
2018-01-30T06:17:06.344Z,0.00
2018-01-30T06:18:06.432Z,0.00
2018-01-30T06:19:06.520Z,0.00
2018-01-30T06:20:06.602Z,0.00
2018-01-30T06:21:06.680Z,0.00
2018-01-30T06:22:06.768Z,0.00
2018-01-30T06:23:06.853Z,0.00
2018-01-30T06:24:06.934Z,0.00
2018-01-30T06:25:07.024Z,0.00
2018-01-30T06:26:07.108Z,0.00
2018-01-30T06:27:07.193Z,0.00
2018-01-30T06:28:07.270Z,0.00
2018-01-30T06:29:07.357Z,0.00
2018-01-30T06:30:07.439Z,0.00
2018-01-30T06:31:07.527Z,0.00
2018-01-30T06:32:07.610Z,0.00
2018-01-30T06:33:07.692Z,0.00
2018-01-30T06:34:07.769Z,0.00
2018-01-30T06:35:07.862Z,0.00
2018-01-30T06:36:07.948Z,0.00
2018-01-30T06:37:08.026Z,0.00
2018-01-30T06:38:08.152Z,0.00
2018-01-30T06:39:08.191Z,0.00
2018-01-30T06:40:08.279Z,0.00
2018-01-30T06:41:08.362Z,0.00
2018-01-30T06:42:08.447Z,0.00
2018-01-30T06:43:08.530Z,0.00
2018-01-30T06:44:08.616Z,0.00
2018-01-30T06:45:08.705Z,0.00
2018-01-30T06:46:08.786Z,0.00
2018-01-30T06:47:08.869Z,0.00
2018-01-30T06:48:08.946Z,4.00
2018-01-30T06:49:09.037Z,4.00
2018-01-30T06:50:09.122Z,4.00
2018-01-30T06:51:09.211Z,0.00
2018-01-30T06:52:09.285Z,4.00
2018-01-30T06:53:09.371Z,4.00
2018-01-30T06:54:09.457Z,4.00
2018-01-30T06:55:09.541Z,4.00
2018-01-30T06:56:09.620Z,4.00
2018-01-30T06:57:09.703Z,4.00
2018-01-30T06:58:09.787Z,8.00
2018-01-30T06:59:09.876Z,4.00
2018-01-30T07:00:09.965Z,8.00
2018-01-30T07:01:10.046Z,8.00
2018-01-30T07:02:10.133Z,8.00
2018-01-30T07:03:10.214Z,12.00
2018-01-30T07:04:10.292Z,12.00
2018-01-30T07:05:10.380Z,12.00
2018-01-30T07:06:10.465Z,12.00
2018-01-30T07:07:10.550Z,20.00
2018-01-30T07:08:10.635Z,20.00
2018-01-30T07:09:10.713Z,20.00
2018-01-30T07:10:10.803Z,24.00
2018-01-30T07:11:10.884Z,24.00
2018-01-30T07:12:10.967Z,28.00
2018-01-30T07:13:11.060Z,28.00
2018-01-30T07:14:11.137Z,32.00
2018-01-30T07:15:11.225Z,32.00
2018-01-30T07:16:11.311Z,32.00
2018-01-30T07:17:11.387Z,40.00
2018-01-30T07:18:11.473Z,44.00
2018-01-30T07:19:11.556Z,44.00
2018-01-30T07:20:11.641Z,48.00
2018-01-30T07:21:11.723Z,52.00
2018-01-30T07:22:11.808Z,52.00
2018-01-30T07:23:11.892Z,56.00
2018-01-30T07:24:11.978Z,60.00
2018-01-30T07:25:12.066Z,64.00
2018-01-30T07:26:12.146Z,68.00
2018-01-30T07:27:12.230Z,72.00
2018-01-30T07:28:12.311Z,76.00
2018-01-30T07:29:12.402Z,80.00
2018-01-30T07:30:12.488Z,84.00
2018-01-30T07:31:12.564Z,88.00
2018-01-30T07:32:12.650Z,92.00
2018-01-30T07:33:12.751Z,96.00
2018-01-30T07:34:12.825Z,100.00
2018-01-30T07:35:12.904Z,108.00
2018-01-30T07:36:12.981Z,108.00
2018-01-30T07:37:13.071Z,112.00
2018-01-30T07:38:13.153Z,236.00
2018-01-30T07:39:13.233Z,432.00
2018-01-30T07:40:13.320Z,584.00
2018-01-30T07:41:13.407Z,644.00
2018-01-30T07:42:13.497Z,680.00
2018-01-30T07:43:13.573Z,708.00
2018-01-30T07:44:13.658Z,708.00
2018-01-30T07:45:13.743Z,720.00
2018-01-30T07:46:13.867Z,724.00
2018-01-30T07:47:13.912Z,700.00
2018-01-30T07:48:13.993Z,712.00
2018-01-30T07:49:14.081Z,696.00
2018-01-30T07:50:14.167Z,680.00
2018-01-30T07:51:14.248Z,668.00
2018-01-30T07:52:14.325Z,668.00
2018-01-30T07:53:14.411Z,668.00
2018-01-30T07:54:14.496Z,668.00
2018-01-30T07:55:14.582Z,680.00
2018-01-30T07:56:14.674Z,676.00
2018-01-30T07:57:14.753Z,676.00
2018-01-30T07:58:14.842Z,660.00
2018-01-30T07:59:14.920Z,640.00
2018-01-30T08:00:15.008Z,628.00
2018-01-30T08:01:15.086Z,648.00
2018-01-30T08:02:15.179Z,648.00
2018-01-30T08:03:15.262Z,652.00
2018-01-30T08:04:15.340Z,612.00
2018-01-30T08:05:15.430Z,596.00
2018-01-30T08:06:15.519Z,584.00
2018-01-30T08:07:15.604Z,580.00
2018-01-30T08:08:15.682Z,584.00
2018-01-30T08:09:15.762Z,588.00
2018-01-30T08:10:15.850Z,620.00
2018-01-30T08:11:15.935Z,584.00
2018-01-30T08:12:16.023Z,588.00
2018-01-30T08:13:16.200Z,616.00
2018-01-30T08:14:16.191Z,612.00
2018-01-30T08:15:16.271Z,596.00
2018-01-30T08:16:16.363Z,616.00
2018-01-30T08:17:16.443Z,624.00
2018-01-30T08:18:16.528Z,620.00
2018-01-30T08:19:16.614Z,608.00
2018-01-30T08:20:16.694Z,584.00
2018-01-30T08:21:16.782Z,592.00
2018-01-30T08:22:16.871Z,624.00
2018-01-30T08:23:16.956Z,616.00
2018-01-30T08:24:17.043Z,596.00
2018-01-30T08:25:17.122Z,588.00
2018-01-30T08:26:17.212Z,624.00
2018-01-30T08:27:17.298Z,616.00
2018-01-30T08:28:17.382Z,628.00
2018-01-30T08:29:17.466Z,620.00
2018-01-30T08:30:17.554Z,604.00
2018-01-30T08:31:17.641Z,616.00
2018-01-30T08:32:17.723Z,620.00
2018-01-30T08:33:17.809Z,640.00
2018-01-30T08:34:17.889Z,652.00
2018-01-30T08:35:17.977Z,660.00
2018-01-30T08:36:18.069Z,660.00
2018-01-30T08:37:18.152Z,644.00
2018-01-30T08:38:18.239Z,620.00
2018-01-30T08:39:18.318Z,636.00
2018-01-30T08:40:18.406Z,660.00
2018-01-30T08:41:18.496Z,668.00
2018-01-30T08:42:18.579Z,712.00
2018-01-30T08:43:18.665Z,788.00
2018-01-30T08:44:18.749Z,780.00
2018-01-30T08:45:18.839Z,756.00
2018-01-30T08:46:18.926Z,760.00
2018-01-30T08:47:19.011Z,816.00
2018-01-30T08:48:19.095Z,780.00
2018-01-30T08:49:19.175Z,760.00
2018-01-30T08:50:19.267Z,808.00
2018-01-30T08:51:19.353Z,756.00
2018-01-30T08:52:19.440Z,708.00
2018-01-30T08:53:19.521Z,748.00
2018-01-30T08:54:19.616Z,760.00
2018-01-30T08:55:19.698Z,780.00
2018-01-30T08:56:19.791Z,836.00
2018-01-30T08:57:19.864Z,992.00
2018-01-30T08:58:19.959Z,976.00
2018-01-30T08:59:20.037Z,988.00
2018-01-30T09:00:20.131Z,968.00
2018-01-30T09:01:20.210Z,996.00
2018-01-30T09:02:20.302Z,856.00
2018-01-30T09:03:20.396Z,808.00
2018-01-30T09:04:20.481Z,752.00
2018-01-30T09:05:20.558Z,916.00
2018-01-30T09:06:20.646Z,720.00
2018-01-30T09:07:20.732Z,788.00
2018-01-30T09:08:20.824Z,776.00
2018-01-30T09:09:20.905Z,708.00
2018-01-30T09:10:20.995Z,684.00
2018-01-30T09:11:21.083Z,576.00
2018-01-30T09:12:21.161Z,740.00
2018-01-30T09:13:21.251Z,760.00
2018-01-30T09:14:21.333Z,844.00
2018-01-30T09:15:21.430Z,908.00
2018-01-30T09:16:21.527Z,960.00
2018-01-30T09:17:21.596Z,1076.00
2018-01-30T09:18:21.690Z,768.00
2018-01-30T09:19:21.776Z,756.00
2018-01-30T09:20:21.858Z,528.00
2018-01-30T09:21:21.949Z,532.00
2018-01-30T09:22:22.038Z,480.00
2018-01-30T09:23:22.121Z,548.00
2018-01-30T09:24:22.202Z,576.00
2018-01-30T09:25:22.294Z,548.00
2018-01-30T09:26:23.041Z,556.00
2018-01-30T09:27:22.941Z,548.00
2018-01-30T09:28:22.892Z,544.00
2018-01-30T09:29:23.314Z,556.00
2018-01-30T09:30:22.823Z,564.00
2018-01-30T09:31:22.814Z,548.00
2018-01-30T09:32:22.901Z,528.00
2018-01-30T09:33:22.990Z,532.00
2018-01-30T09:34:23.076Z,544.00
2018-01-30T09:35:23.159Z,532.00
2018-01-30T09:36:23.250Z,524.00
2018-01-30T09:37:23.337Z,512.00
2018-01-30T09:38:23.419Z,520.00
2018-01-30T09:39:23.515Z,516.00
2018-01-30T09:40:23.597Z,496.00
2018-01-30T09:41:23.676Z,500.00
2018-01-30T09:42:23.766Z,500.00
2018-01-30T09:43:23.855Z,496.00
2018-01-30T09:44:23.942Z,496.00
2018-01-30T09:45:24.030Z,488.00
2018-01-30T09:46:24.115Z,476.00
2018-01-30T09:47:24.200Z,496.00
2018-01-30T09:48:24.288Z,492.00
2018-01-30T09:49:24.429Z,512.00
2018-01-30T09:50:24.458Z,500.00
2018-01-30T09:51:24.548Z,488.00
2018-01-30T09:52:24.633Z,508.00
2018-01-30T09:53:24.731Z,512.00
2018-01-30T09:54:24.808Z,500.00
2018-01-30T09:55:24.900Z,500.00
2018-01-30T09:56:24.978Z,500.00
2018-01-30T09:57:25.077Z,496.00
2018-01-30T09:58:25.153Z,496.00
2018-01-30T09:59:25.251Z,504.00
2018-01-30T10:00:25.326Z,500.00
2018-01-30T10:01:25.418Z,500.00
2018-01-30T10:02:25.498Z,496.00
2018-01-30T10:03:25.584Z,504.00
2018-01-30T10:04:25.679Z,500.00
2018-01-30T10:05:25.759Z,500.00
2018-01-30T10:06:25.844Z,504.00
2018-01-30T10:07:25.936Z,508.00
2018-01-30T10:08:26.027Z,508.00
2018-01-30T10:09:26.106Z,512.00
2018-01-30T10:10:26.191Z,516.00
2018-01-30T10:11:26.282Z,516.00
2018-01-30T10:12:26.376Z,508.00
2018-01-30T10:13:26.454Z,508.00
2018-01-30T10:14:26.547Z,508.00
2018-01-30T10:15:26.630Z,516.00
2018-01-30T10:16:26.721Z,524.00
2018-01-30T10:17:26.804Z,548.00
2018-01-30T10:18:26.892Z,524.00
2018-01-30T10:19:26.977Z,568.00
2018-01-30T10:20:27.062Z,540.00
2018-01-30T10:21:27.143Z,524.00
2018-01-30T10:22:27.236Z,512.00
2018-01-30T10:23:27.327Z,504.00
2018-01-30T10:24:27.409Z,504.00
2018-01-30T10:25:27.491Z,512.00
2018-01-30T10:26:27.583Z,520.00
2018-01-30T10:27:27.670Z,516.00
2018-01-30T10:28:27.756Z,512.00
2018-01-30T10:29:27.846Z,512.00
2018-01-30T10:30:27.934Z,508.00
2018-01-30T10:31:28.018Z,508.00
2018-01-30T10:32:28.105Z,516.00
2018-01-30T10:33:28.193Z,524.00
2018-01-30T10:34:28.274Z,516.00
2018-01-30T10:35:28.369Z,528.00
2018-01-30T10:36:28.451Z,568.00
2018-01-30T10:37:28.548Z,508.00
2018-01-30T10:38:28.622Z,504.00
2018-01-30T10:39:28.710Z,504.00
2018-01-30T10:40:28.793Z,524.00
2018-01-30T10:41:28.883Z,532.00
2018-01-30T10:42:28.975Z,548.00
2018-01-30T10:43:29.061Z,520.00
2018-01-30T10:44:29.140Z,516.00
2018-01-30T10:45:29.238Z,516.00
2018-01-30T10:46:29.315Z,532.00
2018-01-30T10:47:36.548Z,532.00
2018-01-30T10:49:22.447Z,532.00
2018-01-30T10:50:22.517Z,520.00
2018-01-30T10:52:15.547Z,536.00
2018-01-30T10:53:15.637Z,532.00
2018-01-30T10:55:09.680Z,512.00
2018-01-30T10:56:09.761Z,520.00
2018-01-30T10:58:03.830Z,556.00
2018-01-30T10:59:03.897Z,532.00
2018-01-30T11:00:57.944Z,568.00
2018-01-30T11:01:58.024Z,548.00
2018-01-30T11:03:51.052Z,560.00
2018-01-30T11:04:51.134Z,548.00
2018-01-30T11:06:44.189Z,540.00
2018-01-30T11:07:44.256Z,532.00
2018-01-30T11:09:37.304Z,520.00
2018-01-30T11:10:37.379Z,528.00
2018-01-30T11:12:30.419Z,532.00
2018-01-30T11:13:30.504Z,552.00
2018-01-30T11:15:23.560Z,524.00
2018-01-30T11:16:23.629Z,524.00
2018-01-30T11:18:16.652Z,528.00
2018-01-30T11:19:16.743Z,532.00
2018-01-30T11:21:09.779Z,528.00
2018-01-30T11:22:09.862Z,528.00
2018-01-30T11:24:02.882Z,524.00
2018-01-30T11:25:02.972Z,536.00
2018-01-30T11:26:57.020Z,532.00
2018-01-30T11:27:57.098Z,528.00
2018-01-30T11:29:50.137Z,520.00
2018-01-30T11:30:50.211Z,516.00
2018-01-30T11:32:43.260Z,504.00
2018-01-30T11:33:43.325Z,504.00
2018-01-30T11:35:36.374Z,512.00
2018-01-30T11:36:36.447Z,520.00
2018-01-30T11:38:29.517Z,520.00
2018-01-30T11:39:29.576Z,516.00
2018-01-30T11:41:22.610Z,500.00
2018-01-30T11:42:22.691Z,520.00
2018-01-30T11:44:16.025Z,528.00
2018-01-30T11:45:15.830Z,528.00
2018-01-30T11:47:08.862Z,528.00
2018-01-30T11:48:08.953Z,524.00
2018-01-30T11:50:02.003Z,524.00
2018-01-30T11:51:02.071Z,524.00
2018-01-30T11:52:55.111Z,508.00
2018-01-30T11:53:55.187Z,504.00
2018-01-30T11:55:48.234Z,516.00
2018-01-30T11:56:48.304Z,516.00
2018-01-30T11:58:41.351Z,516.00
2018-01-30T11:59:41.426Z,516.00
2018-01-30T12:01:34.483Z,520.00
2018-01-30T12:02:34.545Z,512.00
2018-01-30T12:04:27.596Z,520.00
2018-01-30T12:05:27.671Z,520.00
2018-01-30T12:07:21.740Z,524.00
2018-01-30T12:08:21.790Z,520.00
2018-01-30T12:10:14.835Z,532.00
2018-01-30T12:11:14.928Z,536.00
2018-01-30T12:13:07.970Z,568.00
2018-01-30T12:14:08.040Z,552.00
2018-01-30T12:16:01.079Z,580.00
2018-01-30T12:17:01.160Z,572.00
2018-01-30T12:18:54.205Z,572.00
2018-01-30T12:19:54.287Z,568.00
2018-01-30T12:21:47.338Z,544.00
2018-01-30T12:22:47.425Z,544.00
2018-01-30T12:24:40.491Z,544.00
2018-01-30T12:25:40.556Z,528.00
2018-01-30T12:27:33.624Z,524.00
2018-01-30T12:28:33.679Z,540.00
2018-01-30T12:30:26.725Z,520.00
2018-01-30T12:31:26.808Z,532.00
2018-01-30T12:33:20.846Z,532.00
2018-01-30T12:34:20.928Z,548.00
2018-01-30T12:36:13.996Z,532.00
2018-01-30T12:37:14.053Z,552.00
2018-01-30T12:39:07.089Z,556.00
2018-01-30T12:40:07.175Z,556.00
2018-01-30T12:42:00.230Z,564.00
2018-01-30T12:43:00.292Z,560.00
2018-01-30T12:44:53.328Z,544.00
2018-01-30T12:45:53.414Z,512.00
2018-01-30T12:47:46.464Z,484.00
2018-01-30T12:48:46.531Z,568.00
2018-01-30T12:50:39.577Z,564.00
2018-01-30T12:51:39.653Z,580.00
2018-01-30T12:53:33.712Z,520.00
2018-01-30T12:54:33.789Z,524.00
2018-01-30T12:56:26.814Z,532.00
2018-01-30T12:57:26.907Z,528.00
2018-01-30T12:59:20.959Z,528.00
2018-01-30T13:00:21.023Z,524.00
2018-01-30T13:02:14.056Z,532.00
2018-01-30T13:03:14.158Z,536.00
2018-01-30T13:05:07.201Z,536.00
2018-01-30T13:06:07.265Z,580.00
2018-01-30T13:08:00.297Z,580.00
2018-01-30T13:09:00.372Z,536.00
2018-01-30T13:10:54.766Z,576.00
2018-01-30T13:11:54.510Z,532.00
2018-01-30T13:13:47.542Z,536.00
2018-01-30T13:14:47.634Z,524.00
2018-01-30T13:16:40.987Z,552.00
2018-01-30T13:17:40.751Z,532.00
2018-01-30T13:19:33.790Z,520.00
2018-01-30T13:20:33.873Z,524.00
2018-01-30T13:22:27.457Z,540.00
2018-01-30T13:23:27.226Z,548.00
2018-01-30T13:25:20.266Z,528.00
2018-01-30T13:26:20.349Z,524.00
2018-01-30T13:28:14.738Z,532.00
2018-01-30T13:29:14.471Z,544.00
2018-01-30T13:31:07.578Z,520.00
2018-01-30T13:32:07.593Z,536.00
2018-01-30T13:34:00.645Z,520.00
2018-01-30T13:35:00.708Z,520.00
2018-01-30T13:36:54.825Z,516.00
2018-01-30T13:37:54.846Z,484.00
2018-01-30T13:39:47.902Z,508.00
2018-01-30T13:40:47.970Z,512.00
2018-01-30T13:42:41.001Z,508.00
2018-01-30T13:43:41.083Z,508.00
2018-01-30T13:45:34.159Z,512.00
2018-01-30T13:46:34.204Z,504.00
2018-01-30T13:48:27.247Z,556.00
2018-01-30T13:49:27.332Z,536.00
2018-01-30T13:51:20.398Z,556.00
2018-01-30T13:52:20.449Z,540.00
2018-01-30T13:54:14.501Z,528.00